Climatologie pour Saint-Brevin les Pins
Jour • Résumé pour janvier 15, 2017 Système :  Métrique    Anglais   Mixte
« - 1 jour
+ 1 jour »
Jour Semaine Mois Année Personnalisé
  Maximum : Minimum : Moyenne :
Température sous abri : 9.7 °C 3.8 °C 7.3 °C
Point de rosée : 8.0 °C 3.2 °C 6.1 °C
Humidité : 97 % 86 % 92 %
Vitesse du vent : 17.7 km/h 0.0 km/h 6.5 km/h
Rafale : 24.1 km/h - -
Direction :- - NW
Pression : 1028.3 hPa 1024.9 hPa -
Précipitations : 0.0 mm    
Historical Graphs
 
 
Tableau de données pour janvier 15, 2017
Heure Tempé Pt rosée Pression Vent Vitesse Rafale Humidité Taux pluie (/hr) Soleil
00:00 5.8 °C 4.9 °C 1026.6 hPa NNW 9.7 km/h 14.5 km/h 94 % 0.0 mm 0 W/m2
00:05 5.9 °C 5.0 °C 1026.6 hPa North 9.7 km/h 16.1 km/h 94 % 0.0 mm 0 W/m2
00:10 5.9 °C 5.0 °C 1026.6 hPa North 6.4 km/h 17.7 km/h 94 % 0.0 mm 0 W/m2
00:15 5.8 °C 4.9 °C 1026.6 hPa North 11.3 km/h 17.7 km/h 94 % 0.0 mm 0 W/m2
00:20 5.8 °C 4.9 °C 1027.0 hPa North 6.4 km/h 16.1 km/h 94 % 0.0 mm 0 W/m2
00:25 5.8 °C 4.9 °C 1027.0 hPa North 6.4 km/h 14.5 km/h 94 % 0.0 mm 0 W/m2
00:30 5.7 °C 4.8 °C 1027.0 hPa NNE 4.8 km/h 14.5 km/h 94 % 0.0 mm 0 W/m2
00:35 5.5 °C 4.6 °C 1027.0 hPa North 3.2 km/h 14.5 km/h 94 % 0.0 mm 0 W/m2
00:40 5.3 °C 4.4 °C 1027.0 hPa Calm   11.3 km/h 94 % 0.0 mm 0 W/m2
00:45 5.3 °C 4.5 °C 1027.0 hPa NNW 3.2 km/h 11.3 km/h 95 % 0.0 mm 0 W/m2
00:50 5.2 °C 4.4 °C 1027.0 hPa NNW 6.4 km/h 8.0 km/h 95 % 0.0 mm 0 W/m2
00:55 5.1 °C 4.4 °C 1027.0 hPa North 3.2 km/h 8.0 km/h 95 % 0.0 mm 0 W/m2
01:00 5.1 °C 4.4 °C 1027.0 hPa NNW 3.2 km/h 9.7 km/h 95 % 0.0 mm 0 W/m2
01:10 5.2 °C 4.5 °C 1027.0 hPa NW 8.0 km/h 11.3 km/h 95 % 0.0 mm 0 W/m2
01:15 5.2 °C 4.5 °C 1027.0 hPa NNW 4.8 km/h 11.3 km/h 95 % 0.0 mm 0 W/m2
01:20 5.2 °C 4.5 °C 1027.0 hPa NW 3.2 km/h 11.3 km/h 95 % 0.0 mm 0 W/m2
01:25 5.2 °C 4.4 °C 1027.0 hPa NW 6.4 km/h 11.3 km/h 95 % 0.0 mm 0 W/m2
01:30 4.9 °C 4.1 °C 1027.0 hPa NW 6.4 km/h 11.3 km/h 94 % 0.0 mm 0 W/m2
01:35 4.8 °C 3.9 °C 1027.0 hPa NW 4.8 km/h 9.7 km/h 94 % 0.0 mm 0 W/m2
01:40 4.5 °C 3.6 °C 1027.0 hPa WNW 6.4 km/h 11.3 km/h 94 % 0.0 mm 0 W/m2
01:45 4.3 °C 3.5 °C 1027.0 hPa NW 8.0 km/h 12.9 km/h 94 % 0.0 mm 0 W/m2
01:50 4.3 °C 3.4 °C 1027.0 hPa NW 6.4 km/h 12.9 km/h 94 % 0.0 mm 0 W/m2
01:55 4.2 °C 3.4 °C 1027.0 hPa NW 9.7 km/h 12.9 km/h 95 % 0.0 mm 0 W/m2
02:00 4.1 °C 3.4 °C 1027.0 hPa WNW 4.8 km/h 12.9 km/h 95 % 0.0 mm 0 W/m2
02:05 4.1 °C 3.3 °C 1026.6 hPa NNW 4.8 km/h 16.1 km/h 95 % 0.0 mm 0 W/m2
02:10 4.2 °C 3.5 °C 1027.0 hPa NW 4.8 km/h 16.1 km/h 95 % 0.0 mm 0 W/m2
02:15 4.3 °C 3.5 °C 1027.0 hPa NW 6.4 km/h 12.9 km/h 95 % 0.0 mm 0 W/m2
02:20 4.2 °C 3.4 °C 1027.0 hPa NW 3.2 km/h 12.9 km/h 95 % 0.0 mm 0 W/m2
02:25 4.1 °C 3.3 °C 1027.0 hPa NNW 6.4 km/h 11.3 km/h 95 % 0.0 mm 0 W/m2
02:30 3.9 °C 3.2 °C 1027.0 hPa NW 4.8 km/h 12.9 km/h 95 % 0.0 mm 0 W/m2
02:35 3.9 °C 3.2 °C 1027.0 hPa NNW 4.8 km/h 14.5 km/h 95 % 0.0 mm 0 W/m2
02:40 4.0 °C 3.3 °C 1027.0 hPa NW 3.2 km/h 14.5 km/h 95 % 0.0 mm 0 W/m2
02:50 3.9 °C 3.2 °C 1027.0 hPa NNW 4.8 km/h 14.5 km/h 95 % 0.0 mm 0 W/m2
02:55 3.9 °C 3.3 °C 1027.0 hPa NNW 9.7 km/h 12.9 km/h 96 % 0.0 mm 0 W/m2
03:00 3.8 °C 3.3 °C 1027.0 hPa North 3.2 km/h 11.3 km/h 96 % 0.0 mm 0 W/m2
03:05 3.8 °C 3.3 °C 1027.0 hPa NNW 1.6 km/h 12.9 km/h 96 % 0.0 mm 0 W/m2
03:10 3.9 °C 3.3 °C 1027.3 hPa NW 1.6 km/h 17.7 km/h 96 % 0.0 mm 0 W/m2
03:15 4.0 °C 3.4 °C 1027.3 hPa NW 4.8 km/h 17.7 km/h 96 % 0.0 mm 0 W/m2
03:20 4.2 °C 3.6 °C 1027.3 hPa NNE 11.3 km/h 17.7 km/h 96 % 0.0 mm 0 W/m2
03:25 4.2 °C 3.6 °C 1027.3 hPa North 8.0 km/h 14.5 km/h 96 % 0.0 mm 0 W/m2
03:35 4.2 °C 3.6 °C 1027.3 hPa NNW 4.8 km/h 14.5 km/h 96 % 0.0 mm 0 W/m2
03:40 4.2 °C 3.6 °C 1027.3 hPa NNW 1.6 km/h 14.5 km/h 96 % 0.0 mm 0 W/m2
03:45 4.2 °C 3.6 °C 1027.3 hPa NNW 4.8 km/h 12.9 km/h 96 % 0.0 mm 0 W/m2
03:50 4.1 °C 3.5 °C 1027.3 hPa NW 4.8 km/h 14.5 km/h 96 % 0.0 mm 0 W/m2
03:55 4.1 °C 3.5 °C 1027.3 hPa NNW 8.0 km/h 14.5 km/h 96 % 0.0 mm 0 W/m2
04:00 4.2 °C 3.6 °C 1027.3 hPa NNW 12.9 km/h 17.7 km/h 96 % 0.0 mm 0 W/m2
04:05 4.2 °C 3.6 °C 1027.3 hPa NNW 12.9 km/h 17.7 km/h 96 % 0.0 mm 0 W/m2
04:10 4.3 °C 3.8 °C 1027.3 hPa NNW 4.8 km/h 16.1 km/h 96 % 0.0 mm 0 W/m2
04:15 4.4 °C 3.8 °C 1027.3 hPa NNW 3.2 km/h 12.9 km/h 96 % 0.0 mm 0 W/m2
04:20 4.6 °C 4.2 °C 1027.3 hPa NNW 6.4 km/h 12.9 km/h 97 % 0.0 mm 0 W/m2
04:25 4.7 °C 4.3 °C 1027.3 hPa NNW 3.2 km/h 12.9 km/h 97 % 0.0 mm 0 W/m2
04:30 4.8 °C 4.2 °C 1027.0 hPa NNW 6.4 km/h 12.9 km/h 96 % 0.0 mm 0 W/m2
04:35 4.9 °C 4.4 °C 1027.3 hPa NW 4.8 km/h 12.9 km/h 96 % 0.0 mm 0 W/m2
04:40 5.1 °C 4.5 °C 1027.0 hPa NW 4.8 km/h 12.9 km/h 96 % 0.0 mm 0 W/m2
04:45 5.1 °C 4.5 °C 1027.0 hPa NW 3.2 km/h 12.9 km/h 96 % 0.0 mm 0 W/m2
04:50 5.1 °C 4.5 °C 1027.0 hPa Calm   14.5 km/h 96 % 0.0 mm 0 W/m2
04:55 5.1 °C 4.5 °C 1027.0 hPa NW 3.2 km/h 14.5 km/h 96 % 0.0 mm 0 W/m2
05:00 5.2 °C 4.6 °C 1027.0 hPa NW 3.2 km/h 9.7 km/h 96 % 0.0 mm 0 W/m2
05:10 5.2 °C 4.6 °C 1027.0 hPa NW 3.2 km/h 11.3 km/h 96 % 0.0 mm 0 W/m2
05:15 5.2 °C 4.6 °C 1027.3 hPa NNW 3.2 km/h 12.9 km/h 96 % 0.0 mm 0 W/m2
05:20 5.3 °C 4.7 °C 1027.0 hPa NNW 3.2 km/h 12.9 km/h 96 % 0.0 mm 0 W/m2
05:25 5.4 °C 4.8 °C 1027.0 hPa NNW 1.6 km/h 9.7 km/h 96 % 0.0 mm 0 W/m2
05:30 5.4 °C 4.7 °C 1027.0 hPa NW 3.2 km/h 11.3 km/h 95 % 0.0 mm 0 W/m2
05:35 5.4 °C 4.7 °C 1027.0 hPa NNW 1.6 km/h 11.3 km/h 95 % 0.0 mm 0 W/m2
05:45 5.5 °C 4.9 °C 1027.0 hPa NNW 1.6 km/h 11.3 km/h 96 % 0.0 mm 0 W/m2
05:50 5.6 °C 4.8 °C 1027.0 hPa NW 8.0 km/h 11.3 km/h 95 % 0.0 mm 0 W/m2
05:55 5.6 °C 4.9 °C 1027.0 hPa NNW 8.0 km/h 11.3 km/h 95 % 0.0 mm 0 W/m2
06:00 5.6 °C 4.9 °C 1027.3 hPa NW 1.6 km/h 8.0 km/h 95 % 0.0 mm 0 W/m2
06:05 5.7 °C 4.9 °C 1027.0 hPa NNW 6.4 km/h 11.3 km/h 95 % 0.0 mm 0 W/m2
06:10 5.8 °C 5.0 °C 1027.3 hPa NW 6.4 km/h 11.3 km/h 95 % 0.0 mm 0 W/m2
06:15 5.8 °C 5.0 °C 1027.3 hPa NNW 9.7 km/h 14.5 km/h 95 % 0.0 mm 0 W/m2
06:20 5.8 °C 5.0 °C 1027.3 hPa NW 3.2 km/h 14.5 km/h 95 % 0.0 mm 0 W/m2
06:25 5.8 °C 5.1 °C 1027.3 hPa NW 4.8 km/h 12.9 km/h 95 % 0.0 mm 0 W/m2
06:35 5.9 °C 5.2 °C 1027.3 hPa NW 3.2 km/h 11.3 km/h 95 % 0.0 mm 0 W/m2
06:40 5.9 °C 5.2 °C 1027.3 hPa Calm   11.3 km/h 95 % 0.0 mm 0 W/m2
06:45 5.9 °C 5.2 °C 1027.3 hPa North 4.8 km/h 12.9 km/h 95 % 0.0 mm 0 W/m2
06:50 6.0 °C 5.3 °C 1027.3 hPa NW 9.7 km/h 16.1 km/h 95 % 0.0 mm 0 W/m2
06:55 6.1 °C 5.3 °C 1027.3 hPa NW 4.8 km/h 16.1 km/h 95 % 0.0 mm 0 W/m2
07:00 6.1 °C 5.4 °C 1027.3 hPa NW 6.4 km/h 19.3 km/h 95 % 0.0 mm 0 W/m2
07:05 6.2 °C 5.3 °C 1027.3 hPa NW 8.0 km/h 19.3 km/h 94 % 0.0 mm 0 W/m2
07:10 6.2 °C 5.3 °C 1027.3 hPa NW 11.3 km/h 14.5 km/h 94 % 0.0 mm 0 W/m2
07:20 6.4 °C 5.5 °C 1027.3 hPa NW 3.2 km/h 14.5 km/h 94 % 0.0 mm 0 W/m2
07:25 6.3 °C 5.4 °C 1027.3 hPa NW 4.8 km/h 14.5 km/h 94 % 0.0 mm 0 W/m2
07:30 6.4 °C 5.5 °C 1027.3 hPa North 8.0 km/h 11.3 km/h 94 % 0.0 mm 0 W/m2
07:35 6.3 °C 5.4 °C 1027.3 hPa NNW 4.8 km/h 16.1 km/h 94 % 0.0 mm 0 W/m2
07:40 6.4 °C 5.5 °C 1027.3 hPa NNW 11.3 km/h 16.1 km/h 94 % 0.0 mm 0 W/m2
07:45 6.4 °C 5.5 °C 1027.3 hPa NNW 3.2 km/h 12.9 km/h 94 % 0.0 mm 0 W/m2
07:50 6.3 °C 5.4 °C 1027.7 hPa NW 4.8 km/h 11.3 km/h 94 % 0.0 mm 0 W/m2
08:00 6.3 °C 5.4 °C 1027.7 hPa North 3.2 km/h 16.1 km/h 94 % 0.0 mm 0 W/m2
08:05 6.3 °C 5.4 °C 1027.7 hPa NNW 6.4 km/h 14.5 km/h 94 % 0.0 mm 0 W/m2
08:10 6.3 °C 5.4 °C 1027.7 hPa WNW 1.6 km/h 14.5 km/h 94 % 0.0 mm 0 W/m2
08:15 6.3 °C 5.4 °C 1027.7 hPa NNW 9.7 km/h 9.7 km/h 94 % 0.0 mm 0 W/m2
08:20 6.2 °C 5.3 °C 1027.7 hPa NNW 3.2 km/h 9.7 km/h 94 % 0.0 mm 0 W/m2
08:25 6.2 °C 5.3 °C 1028.0 hPa NW 4.8 km/h 9.7 km/h 94 % 0.0 mm 0 W/m2
08:30 6.3 °C 5.4 °C 1027.7 hPa NW 4.8 km/h 11.3 km/h 94 % 0.0 mm 0 W/m2
08:35 6.4 °C 5.5 °C 1027.7 hPa WNW 4.8 km/h 12.9 km/h 94 % 0.0 mm 0 W/m2
08:40 6.4 °C 5.5 °C 1027.7 hPa Calm   12.9 km/h 94 % 0.0 mm 0 W/m2
08:50 6.5 °C 5.6 °C 1027.7 hPa NW 1.6 km/h 9.7 km/h 94 % 0.0 mm 0 W/m2
08:55 6.6 °C 5.7 °C 1027.7 hPa NW 6.4 km/h 11.3 km/h 94 % 0.0 mm 0 W/m2
09:00 6.6 °C 5.7 °C 1027.7 hPa NW 4.8 km/h 11.3 km/h 94 % 0.0 mm 5 W/m2
09:05 6.6 °C 5.7 °C 1027.7 hPa WNW 4.8 km/h 12.9 km/h 94 % 0.0 mm 9 W/m2
09:10 6.7 °C 5.8 °C 1027.7 hPa NW 4.8 km/h 12.9 km/h 94 % 0.0 mm 9 W/m2
09:15 6.7 °C 5.8 °C 1028.0 hPa NW 3.2 km/h 16.1 km/h 94 % 0.0 mm 11 W/m2
09:20 6.8 °C 5.7 °C 1028.0 hPa NW 4.8 km/h 16.1 km/h 93 % 0.0 mm 11 W/m2
09:25 6.7 °C 5.7 °C 1028.0 hPa NW 3.2 km/h 12.9 km/h 93 % 0.0 mm 16 W/m2
09:30 6.7 °C 5.8 °C 1028.0 hPa NNW 3.2 km/h 11.3 km/h 94 % 0.0 mm 16 W/m2
09:35 6.7 °C 5.8 °C 1028.0 hPa NW 8.0 km/h 12.9 km/h 94 % 0.0 mm 14 W/m2
09:40 6.7 °C 5.8 °C 1028.0 hPa NW 6.4 km/h 12.9 km/h 94 % 0.0 mm 14 W/m2
09:45 6.8 °C 5.8 °C 1028.0 hPa NW 12.9 km/h 14.5 km/h 93 % 0.0 mm 19 W/m2
09:55 6.8 °C 5.8 °C 1028.3 hPa NNW 3.2 km/h 12.9 km/h 93 % 0.0 mm 19 W/m2
10:00 6.9 °C 5.8 °C 1028.3 hPa NNW 4.8 km/h 12.9 km/h 93 % 0.0 mm 9 W/m2
10:05 6.9 °C 5.9 °C 1028.3 hPa NNW 4.8 km/h 12.9 km/h 93 % 0.0 mm 16 W/m2
10:10 6.9 °C 5.9 °C 1028.3 hPa NW 6.4 km/h 12.9 km/h 93 % 0.0 mm 25 W/m2
10:15 6.9 °C 5.9 °C 1028.3 hPa WNW 1.6 km/h 12.9 km/h 93 % 0.0 mm 23 W/m2
10:20 6.9 °C 5.8 °C 1028.0 hPa NW 8.0 km/h 11.3 km/h 93 % 0.0 mm 21 W/m2
10:25 6.9 °C 5.8 °C 1028.3 hPa WNW 3.2 km/h 11.3 km/h 93 % 0.0 mm 23 W/m2
10:30 6.9 °C 5.8 °C 1028.3 hPa NW 4.8 km/h 11.3 km/h 93 % 0.0 mm 32 W/m2
10:35 6.9 °C 6.0 °C 1028.3 hPa NW 4.8 km/h 11.3 km/h 94 % 0.0 mm 42 W/m2
10:40 6.9 °C 6.0 °C 1028.3 hPa NW 3.2 km/h 6.4 km/h 94 % 0.0 mm 35 W/m2
10:45 7.0 °C 6.1 °C 1028.3 hPa WNW 6.4 km/h 9.7 km/h 94 % 0.0 mm 30 W/m2
10:50 7.0 °C 6.1 °C 1028.3 hPa WNW 4.8 km/h 9.7 km/h 94 % 0.0 mm 30 W/m2
10:55 7.0 °C 6.1 °C 1028.3 hPa WNW 6.4 km/h 11.3 km/h 94 % 0.0 mm 26 W/m2
11:05 7.0 °C 6.1 °C 1028.3 hPa NNW 6.4 km/h 9.7 km/h 94 % 0.0 mm 21 W/m2
11:10 7.0 °C 6.1 °C 1028.3 hPa NW 6.4 km/h 12.9 km/h 94 % 0.0 mm 23 W/m2
11:15 7.1 °C 6.2 °C 1028.3 hPa WNW 9.7 km/h 12.9 km/h 94 % 0.0 mm 25 W/m2
11:20 7.1 °C 6.2 °C 1028.3 hPa NNW 4.8 km/h 14.5 km/h 94 % 0.0 mm 32 W/m2
11:25 7.1 °C 6.2 °C 1028.3 hPa NW 6.4 km/h 14.5 km/h 94 % 0.0 mm 37 W/m2
11:30 7.2 °C 6.1 °C 1028.3 hPa NW 6.4 km/h 12.9 km/h 93 % 0.0 mm 39 W/m2
11:35 7.2 °C 6.2 °C 1028.3 hPa NW 9.7 km/h 12.9 km/h 93 % 0.0 mm 42 W/m2
11:40 7.3 °C 6.2 °C 1028.3 hPa NW 3.2 km/h 12.9 km/h 93 % 0.0 mm 54 W/m2
11:45 7.4 °C 6.3 °C 1028.3 hPa Calm   12.9 km/h 93 % 0.0 mm 63 W/m2
11:50 7.5 °C 6.4 °C 1028.3 hPa NW 6.4 km/h 12.9 km/h 93 % 0.0 mm 74 W/m2
11:55 7.6 °C 6.4 °C 1028.0 hPa NNW 3.2 km/h 12.9 km/h 92 % 0.0 mm 72 W/m2
12:00 7.7 °C 6.5 °C 1028.0 hPa NW 9.7 km/h 11.3 km/h 92 % 0.0 mm 69 W/m2
12:05 7.8 °C 6.6 °C 1028.0 hPa NNE 6.4 km/h 11.3 km/h 92 % 0.0 mm 74 W/m2
12:10 7.8 °C 6.6 °C 1028.0 hPa NNW 6.4 km/h 11.3 km/h 92 % 0.0 mm 67 W/m2
12:15 7.8 °C 6.5 °C 1028.0 hPa NNW 11.3 km/h 11.3 km/h 91 % 0.0 mm 77 W/m2
12:20 7.9 °C 6.7 °C 1028.0 hPa NNW 6.4 km/h 11.3 km/h 92 % 0.0 mm 76 W/m2
12:25 8.1 °C 6.8 °C 1028.0 hPa NW 1.6 km/h 11.3 km/h 92 % 0.0 mm 76 W/m2
12:30 8.1 °C 6.7 °C 1028.0 hPa WNW 4.8 km/h 12.9 km/h 91 % 0.0 mm 70 W/m2
12:35 8.1 °C 6.7 °C 1028.0 hPa NW 8.0 km/h 12.9 km/h 91 % 0.0 mm 79 W/m2
12:40 8.1 °C 6.5 °C 1028.0 hPa NW 3.2 km/h 12.9 km/h 90 % 0.0 mm 83 W/m2
12:45 8.1 °C 6.5 °C 1028.0 hPa NNW 9.7 km/h 14.5 km/h 90 % 0.0 mm 72 W/m2
12:50 8.1 °C 6.5 °C 1027.7 hPa NW 6.4 km/h 14.5 km/h 90 % 0.0 mm 70 W/m2
12:55 8.1 °C 6.4 °C 1027.7 hPa NNW 4.8 km/h 12.9 km/h 89 % 0.0 mm 93 W/m2
13:00 8.2 °C 6.5 °C 1027.7 hPa NNW 9.7 km/h 14.5 km/h 89 % 0.0 mm 79 W/m2
13:10 8.2 °C 6.5 °C 1027.7 hPa NNW 6.4 km/h 17.7 km/h 89 % 0.0 mm 77 W/m2
13:15 8.2 °C 6.5 °C 1027.7 hPa West 4.8 km/h 17.7 km/h 89 % 0.0 mm 104 W/m2
13:20 8.3 °C 6.6 °C 1027.7 hPa WNW 8.0 km/h 12.9 km/h 89 % 0.0 mm 100 W/m2
13:25 8.3 °C 6.6 °C 1027.7 hPa WNW 4.8 km/h 12.9 km/h 89 % 0.0 mm 91 W/m2
13:30 8.3 °C 6.6 °C 1027.3 hPa NNW 9.7 km/h 12.9 km/h 89 % 0.0 mm 128 W/m2
13:35 8.6 °C 6.8 °C 1027.3 hPa NW 3.2 km/h 12.9 km/h 89 % 0.0 mm 174 W/m2
13:40 8.8 °C 7.1 °C 1027.3 hPa WNW 4.8 km/h 14.5 km/h 89 % 0.0 mm 155 W/m2
13:45 9.0 °C 7.3 °C 1027.3 hPa NW 3.2 km/h 14.5 km/h 89 % 0.0 mm 197 W/m2
13:50 9.2 °C 7.2 °C 1027.3 hPa WNW 6.4 km/h 16.1 km/h 87 % 0.0 mm 274 W/m2
13:55 9.6 °C 7.4 °C 1027.3 hPa WNW 6.4 km/h 17.7 km/h 86 % 0.0 mm 306 W/m2
14:00 9.7 °C 7.5 °C 1027.0 hPa NW 9.7 km/h 17.7 km/h 86 % 0.0 mm 192 W/m2
14:05 9.4 °C 7.2 °C 1027.0 hPa WNW 9.7 km/h 19.3 km/h 86 % 0.0 mm 188 W/m2
14:10 9.4 °C 7.2 °C 1027.0 hPa NNW 4.8 km/h 19.3 km/h 86 % 0.0 mm 163 W/m2
14:15 9.4 °C 7.2 °C 1027.0 hPa NW 4.8 km/h 19.3 km/h 86 % 0.0 mm 230 W/m2
14:20 9.4 °C 7.2 °C 1027.0 hPa WNW 12.9 km/h 19.3 km/h 86 % 0.0 mm 172 W/m2
14:25 9.4 °C 7.2 °C 1026.6 hPa WNW 4.8 km/h 17.7 km/h 86 % 0.0 mm 139 W/m2
14:30 9.4 °C 7.4 °C 1026.6 hPa NW 4.8 km/h 16.1 km/h 87 % 0.0 mm 165 W/m2
14:35 9.4 °C 7.3 °C 1026.6 hPa WNW 4.8 km/h 20.9 km/h 87 % 0.0 mm 149 W/m2
14:40 9.3 °C 7.1 °C 1026.3 hPa NW 9.7 km/h 20.9 km/h 86 % 0.0 mm 148 W/m2
14:50 9.4 °C 7.4 °C 1026.3 hPa NW 14.5 km/h 17.7 km/h 87 % 0.0 mm 167 W/m2
14:55 9.4 °C 7.2 °C 1026.3 hPa NW 12.9 km/h 19.3 km/h 86 % 0.0 mm 139 W/m2
15:00 9.3 °C 7.1 °C 1026.3 hPa WNW 9.7 km/h 20.9 km/h 86 % 0.0 mm 123 W/m2
15:05 9.3 °C 7.2 °C 1026.3 hPa NNW 8.0 km/h 22.5 km/h 87 % 0.0 mm 123 W/m2
15:10 9.2 °C 7.0 °C 1026.3 hPa NW 9.7 km/h 22.5 km/h 86 % 0.0 mm 120 W/m2
15:15 9.3 °C 7.1 °C 1026.3 hPa WNW 11.3 km/h 20.9 km/h 86 % 0.0 mm 102 W/m2
15:20 9.3 °C 7.1 °C 1026.3 hPa NNW 8.0 km/h 24.1 km/h 86 % 0.0 mm 120 W/m2
15:25 9.3 °C 7.1 °C 1026.3 hPa WNW 4.8 km/h 24.1 km/h 86 % 0.0 mm 93 W/m2
15:30 9.3 °C 7.1 °C 1026.3 hPa WNW 12.9 km/h 20.9 km/h 86 % 0.0 mm 81 W/m2
15:35 9.3 °C 7.1 °C 1026.3 hPa NW 6.4 km/h 19.3 km/h 86 % 0.0 mm 54 W/m2
15:40 9.2 °C 6.9 °C 1026.3 hPa WNW 3.2 km/h 19.3 km/h 86 % 0.0 mm 47 W/m2
15:45 9.1 °C 7.1 °C 1026.0 hPa NNW 9.7 km/h 19.3 km/h 87 % 0.0 mm 37 W/m2
15:50 9.1 °C 7.0 °C 1026.3 hPa West 8.0 km/h 19.3 km/h 87 % 0.0 mm 54 W/m2
16:00 9.1 °C 7.0 °C 1026.3 hPa NW 9.7 km/h 20.9 km/h 87 % 0.0 mm 37 W/m2
16:05 9.0 °C 7.0 °C 1026.3 hPa NW 9.7 km/h 19.3 km/h 87 % 0.0 mm 56 W/m2
16:10 9.1 °C 7.0 °C 1026.0 hPa NNW 8.0 km/h 22.5 km/h 87 % 0.0 mm 69 W/m2
16:20 9.2 °C 7.1 °C 1026.0 hPa WNW 4.8 km/h 19.3 km/h 87 % 0.0 mm 74 W/m2
16:25 9.2 °C 7.1 °C 1026.0 hPa WNW 16.1 km/h 19.3 km/h 87 % 0.0 mm 46 W/m2
16:30 9.2 °C 7.1 °C 1026.0 hPa NW 11.3 km/h 19.3 km/h 87 % 0.0 mm 54 W/m2
16:35 9.2 °C 7.1 °C 1026.0 hPa NW 6.4 km/h 19.3 km/h 87 % 0.0 mm 74 W/m2
16:40 9.2 °C 7.1 °C 1026.0 hPa WNW 11.3 km/h 16.1 km/h 87 % 0.0 mm 77 W/m2
16:45 9.2 °C 7.1 °C 1026.0 hPa NW 9.7 km/h 17.7 km/h 87 % 0.0 mm 65 W/m2
16:50 9.2 °C 7.1 °C 1026.0 hPa NW 6.4 km/h 17.7 km/h 87 % 0.0 mm 42 W/m2
16:55 9.2 °C 7.1 °C 1026.0 hPa NW 4.8 km/h 17.7 km/h 87 % 0.0 mm 40 W/m2
17:05 9.1 °C 7.2 °C 1026.0 hPa NNW 8.0 km/h 17.7 km/h 88 % 0.0 mm 30 W/m2
17:10 9.1 °C 7.2 °C 1026.0 hPa NNW 6.4 km/h 17.7 km/h 88 % 0.0 mm 21 W/m2
17:15 9.0 °C 7.1 °C 1026.0 hPa WNW 8.0 km/h 12.9 km/h 88 % 0.0 mm 12 W/m2
17:20 9.0 °C 7.1 °C 1026.0 hPa NW 6.4 km/h 16.1 km/h 88 % 0.0 mm 7 W/m2
17:25 8.9 °C 7.1 °C 1025.6 hPa WNW 6.4 km/h 16.1 km/h 88 % 0.0 mm 5 W/m2
17:30 8.9 °C 7.1 °C 1025.6 hPa WNW 8.0 km/h 14.5 km/h 88 % 0.0 mm 5 W/m2
17:35 8.9 °C 7.1 °C 1025.6 hPa WNW 6.4 km/h 14.5 km/h 88 % 0.0 mm 0 W/m2
17:40 8.8 °C 7.0 °C 1025.6 hPa NW 3.2 km/h 12.9 km/h 88 % 0.0 mm 0 W/m2
17:45 8.8 °C 7.1 °C 1025.6 hPa WNW 11.3 km/h 14.5 km/h 89 % 0.0 mm 0 W/m2
17:50 8.9 °C 7.0 °C 1025.6 hPa WNW 9.7 km/h 14.5 km/h 88 % 0.0 mm 0 W/m2
17:55 8.9 °C 7.1 °C 1025.6 hPa WNW 6.4 km/h 14.5 km/h 88 % 0.0 mm 0 W/m2
18:00 8.9 °C 7.1 °C 1025.6 hPa NW 6.4 km/h 16.1 km/h 88 % 0.0 mm 0 W/m2
18:05 9.0 °C 7.1 °C 1025.6 hPa West 4.8 km/h 16.1 km/h 88 % 0.0 mm 0 W/m2
18:10 8.9 °C 7.1 °C 1025.6 hPa WNW 6.4 km/h 11.3 km/h 88 % 0.0 mm 0 W/m2
18:15 8.9 °C 7.1 °C 1025.6 hPa WNW 3.2 km/h 11.3 km/h 88 % 0.0 mm 0 W/m2
18:20 8.8 °C 7.1 °C 1025.6 hPa NW 8.0 km/h 11.3 km/h 89 % 0.0 mm 0 W/m2
18:25 8.8 °C 7.1 °C 1025.6 hPa WNW 1.6 km/h 11.3 km/h 89 % 0.0 mm 0 W/m2
18:30 8.8 °C 7.1 °C 1025.6 hPa WNW 1.6 km/h 11.3 km/h 89 % 0.0 mm 0 W/m2
18:35 8.8 °C 7.1 °C 1025.6 hPa WNW 8.0 km/h 9.7 km/h 89 % 0.0 mm 0 W/m2
18:40 8.9 °C 7.2 °C 1025.6 hPa WNW 3.2 km/h 14.5 km/h 89 % 0.0 mm 0 W/m2
18:45 9.0 °C 7.3 °C 1025.6 hPa WNW 9.7 km/h 14.5 km/h 89 % 0.0 mm 0 W/m2
18:50 9.0 °C 7.3 °C 1025.6 hPa NW 1.6 km/h 14.5 km/h 89 % 0.0 mm 0 W/m2
18:55 9.1 °C 7.3 °C 1025.3 hPa WNW 8.0 km/h 14.5 km/h 89 % 0.0 mm 0 W/m2
19:00 9.1 °C 7.3 °C 1025.3 hPa NNW 16.1 km/h 16.1 km/h 89 % 0.0 mm 0 W/m2
19:05 9.0 °C 7.3 °C 1025.3 hPa WNW 3.2 km/h 16.1 km/h 89 % 0.0 mm 0 W/m2
19:10 9.0 °C 7.3 °C 1025.3 hPa WNW 8.0 km/h 16.1 km/h 89 % 0.0 mm 0 W/m2
19:15 9.1 °C 7.3 °C 1025.3 hPa NW 11.3 km/h 14.5 km/h 89 % 0.0 mm 0 W/m2
19:20 9.1 °C 7.4 °C 1024.9 hPa NW 6.4 km/h 16.1 km/h 89 % 0.0 mm 0 W/m2
19:25 9.1 °C 7.4 °C 1025.3 hPa NW 3.2 km/h 16.1 km/h 89 % 0.0 mm 0 W/m2
19:30 9.2 °C 7.4 °C 1024.9 hPa WNW 8.0 km/h 14.5 km/h 89 % 0.0 mm 0 W/m2
19:35 9.2 °C 7.5 °C 1024.9 hPa NW 9.7 km/h 16.1 km/h 89 % 0.0 mm 0 W/m2
19:40 9.3 °C 7.6 °C 1024.9 hPa WNW 8.0 km/h 17.7 km/h 89 % 0.0 mm 0 W/m2
19:45 9.2 °C 7.5 °C 1025.3 hPa NNW 6.4 km/h 17.7 km/h 89 % 0.0 mm 0 W/m2
19:50 9.2 °C 7.5 °C 1025.3 hPa NNW 3.2 km/h 16.1 km/h 89 % 0.0 mm 0 W/m2
19:55 9.2 °C 7.7 °C 1025.3 hPa NW 8.0 km/h 19.3 km/h 90 % 0.0 mm 0 W/m2
20:05 9.4 °C 7.8 °C 1025.3 hPa NNW 9.7 km/h 19.3 km/h 90 % 0.0 mm 0 W/m2
20:10 9.3 °C 7.6 °C 1024.9 hPa NNW 4.8 km/h 20.9 km/h 89 % 0.0 mm 0 W/m2
20:15 9.3 °C 7.7 °C 1024.9 hPa NNW 16.1 km/h 20.9 km/h 90 % 0.0 mm 0 W/m2
20:20 9.2 °C 7.7 °C 1024.9 hPa NNW 9.7 km/h 22.5 km/h 90 % 0.0 mm 0 W/m2
20:25 9.3 °C 7.7 °C 1024.9 hPa NW 14.5 km/h 22.5 km/h 90 % 0.0 mm 0 W/m2
20:30 9.3 °C 7.7 °C 1024.9 hPa NNW 16.1 km/h 20.9 km/h 90 % 0.0 mm 0 W/m2
20:35 9.2 °C 7.7 °C 1024.9 hPa NW 12.9 km/h 20.9 km/h 90 % 0.0 mm 0 W/m2
20:40 9.2 °C 7.6 °C 1024.9 hPa NW 12.9 km/h 19.3 km/h 90 % 0.0 mm 0 W/m2
20:45 9.1 °C 7.6 °C 1024.9 hPa WNW 4.8 km/h 19.3 km/h 90 % 0.0 mm 0 W/m2
20:50 9.2 °C 7.6 °C 1024.9 hPa NW 14.5 km/h 20.9 km/h 90 % 0.0 mm 0 W/m2
20:55 9.1 °C 7.7 °C 1024.9 hPa NW 8.0 km/h 20.9 km/h 91 % 0.0 mm 0 W/m2
21:00 9.0 °C 7.6 °C 1024.9 hPa NNW 3.2 km/h 17.7 km/h 91 % 0.0 mm 0 W/m2
21:05 8.8 °C 7.4 °C 1024.9 hPa NNW 1.6 km/h 17.7 km/h 91 % 0.0 mm 0 W/m2
21:10 8.4 °C 7.1 °C 1025.3 hPa NW 4.8 km/h 16.1 km/h 91 % 0.0 mm 0 W/m2
21:15 8.3 °C 7.1 °C 1025.3 hPa NW 4.8 km/h 14.5 km/h 92 % 0.0 mm 0 W/m2
21:20 8.3 °C 7.1 °C 1025.3 hPa NNW 4.8 km/h 19.3 km/h 92 % 0.0 mm 0 W/m2
21:25 8.3 °C 7.1 °C 1025.3 hPa NW 3.2 km/h 19.3 km/h 92 % 0.0 mm 0 W/m2
21:30 8.4 °C 7.4 °C 1025.3 hPa NW 6.4 km/h 14.5 km/h 93 % 0.0 mm 0 W/m2
21:35 8.5 °C 7.4 °C 1025.3 hPa NW 6.4 km/h 16.1 km/h 93 % 0.0 mm 0 W/m2
21:40 8.6 °C 7.5 °C 1025.3 hPa NW 6.4 km/h 16.1 km/h 93 % 0.0 mm 0 W/m2
21:45 8.7 °C 7.6 °C 1024.9 hPa NNW 8.0 km/h 16.1 km/h 93 % 0.0 mm 0 W/m2
21:50 8.7 °C 7.5 °C 1024.9 hPa NNW 8.0 km/h 17.7 km/h 92 % 0.0 mm 0 W/m2
21:55 8.7 °C 7.4 °C 1024.9 hPa NNW 9.7 km/h 17.7 km/h 92 % 0.0 mm 0 W/m2
22:00 8.6 °C 7.4 °C 1024.9 hPa NW 4.8 km/h 20.9 km/h 92 % 0.0 mm 0 W/m2
22:05 8.7 °C 7.4 °C 1024.9 hPa NW 4.8 km/h 20.9 km/h 92 % 0.0 mm 0 W/m2
22:10 8.6 °C 7.3 °C 1024.9 hPa NW 6.4 km/h 16.1 km/h 92 % 0.0 mm 0 W/m2
22:20 8.7 °C 7.7 °C 1024.9 hPa NNW 6.4 km/h 19.3 km/h 93 % 0.0 mm 0 W/m2
22:25 8.8 °C 7.5 °C 1024.9 hPa WNW 8.0 km/h 19.3 km/h 92 % 0.0 mm 0 W/m2
22:30 8.8 °C 7.5 °C 1024.9 hPa NNW 1.6 km/h 14.5 km/h 92 % 0.0 mm 0 W/m2
22:35 8.8 °C 7.5 °C 1024.9 hPa NW 6.4 km/h 14.5 km/h 92 % 0.0 mm 0 W/m2
22:40 8.8 °C 7.6 °C 1024.9 hPa WNW 3.2 km/h 14.5 km/h 92 % 0.0 mm 0 W/m2
22:45 8.8 °C 7.6 °C 1024.9 hPa WNW 8.0 km/h 14.5 km/h 92 % 0.0 mm 0 W/m2
22:50 8.8 °C 7.5 °C 1024.9 hPa NNW 11.3 km/h 16.1 km/h 92 % 0.0 mm 0 W/m2
22:55 8.6 °C 7.3 °C 1024.9 hPa NW 4.8 km/h 16.1 km/h 92 % 0.0 mm 0 W/m2
23:00 8.4 °C 7.3 °C 1024.9 hPa NNW 4.8 km/h 14.5 km/h 93 % 0.0 mm 0 W/m2
23:05 8.5 °C 7.4 °C 1024.9 hPa NW 8.0 km/h 14.5 km/h 93 % 0.0 mm 0 W/m2
23:10 8.6 °C 7.5 °C 1024.9 hPa NNW 6.4 km/h 16.1 km/h 93 % 0.0 mm 0 W/m2
23:15 8.6 °C 7.5 °C 1024.9 hPa North 11.3 km/h 19.3 km/h 93 % 0.0 mm 0 W/m2
23:20 8.8 °C 7.9 °C 1024.9 hPa NNW 8.0 km/h 19.3 km/h 94 % 0.0 mm 0 W/m2
23:25 9.0 °C 7.9 °C 1024.9 hPa NNW 6.4 km/h 22.5 km/h 93 % 0.0 mm 0 W/m2
23:30 9.0 °C 7.9 °C 1024.9 hPa NNW 6.4 km/h 22.5 km/h 93 % 0.0 mm 0 W/m2
23:35 9.1 °C 7.8 °C 1024.9 hPa NNW 16.1 km/h 20.9 km/h 92 % 0.0 mm 0 W/m2
23:40 9.1 °C 7.9 °C 1024.9 hPa NNW 12.9 km/h 24.1 km/h 92 % 0.0 mm 0 W/m2
23:45 9.3 °C 8.0 °C 1024.9 hPa NW 14.5 km/h 24.1 km/h 92 % 0.0 mm 0 W/m2
23:50 9.3 °C 7.9 °C 1024.9 hPa North 17.7 km/h 24.1 km/h 91 % 0.0 mm 0 W/m2
23:55 9.1 °C 7.7 °C 1024.9 hPa North 14.5 km/h 22.5 km/h 91 % 0.0 mm 0 W/m2
Avec l'autorisation de Weather Underground - 1.75 mb